createdAt,value
2023-04-27T00:02:22.433Z,1.80
2023-04-27T00:04:51.053Z,1.80
2023-04-27T00:07:20.681Z,1.90
2023-04-27T00:09:48.945Z,1.87
2023-04-27T00:12:17.094Z,2.30
2023-04-27T00:14:45.191Z,1.60
2023-04-27T00:17:13.262Z,1.90
2023-04-27T00:19:42.307Z,2.10
2023-04-27T00:22:11.368Z,1.90
2023-04-27T00:24:41.777Z,1.73
2023-04-27T00:27:09.917Z,2.17
2023-04-27T00:29:42.712Z,2.03
2023-04-27T00:32:11.351Z,2.10
2023-04-27T00:34:39.603Z,1.77
2023-04-27T00:37:07.805Z,2.10
2023-04-27T00:39:36.173Z,2.33
2023-04-27T00:42:05.923Z,1.90
2023-04-27T00:44:34.045Z,1.80
2023-04-27T00:47:02.137Z,2.43
2023-04-27T00:49:30.767Z,2.80
2023-04-27T00:51:58.986Z,2.40
2023-04-27T00:54:40.398Z,2.20
2023-04-27T00:57:10.154Z,1.97
2023-04-27T00:59:40.800Z,2.10
2023-04-27T01:02:09.025Z,1.97
2023-04-27T01:04:37.539Z,2.30
2023-04-27T01:07:05.849Z,2.03
2023-04-27T01:09:33.933Z,2.30
2023-04-27T01:12:03.343Z,2.10
2023-04-27T01:14:32.849Z,2.20
2023-04-27T01:17:01.003Z,2.27
2023-04-27T01:19:29.107Z,2.00
2023-04-27T01:21:57.190Z,2.33
2023-04-27T01:24:26.858Z,1.73
2023-04-27T01:26:54.969Z,2.10
2023-04-27T01:29:23.098Z,2.37
2023-04-27T01:31:51.214Z,1.80
2023-04-27T01:34:19.315Z,2.43
2023-04-27T01:36:47.438Z,2.10
2023-04-27T01:39:15.704Z,2.13
2023-04-27T01:41:45.172Z,1.70
2023-04-27T01:44:13.268Z,2.40
2023-04-27T01:46:41.582Z,2.00
2023-04-27T01:49:09.817Z,2.30
2023-04-27T01:51:40.738Z,2.17
2023-04-27T01:54:08.786Z,2.03
2023-04-27T01:56:36.897Z,2.07
2023-04-27T01:59:06.391Z,2.00
2023-04-27T02:01:34.604Z,2.07
2023-04-27T02:04:02.885Z,2.10
2023-04-27T02:06:31.404Z,2.10
2023-04-27T02:08:59.690Z,2.10
2023-04-27T02:11:27.865Z,2.30
2023-04-27T02:13:55.996Z,1.93
2023-04-27T02:16:25.499Z,2.33
2023-04-27T02:18:54.690Z,2.40
2023-04-27T02:21:23.068Z,2.40
2023-04-27T02:23:51.162Z,2.20
2023-04-27T02:26:19.593Z,2.43
2023-04-27T02:28:48.100Z,2.33
2023-04-27T02:31:16.770Z,2.10
2023-04-27T02:33:46.363Z,2.40
2023-04-27T02:36:14.463Z,2.10
2023-04-27T02:38:42.624Z,2.10
2023-04-27T02:41:10.693Z,2.00
2023-04-27T02:43:38.766Z,2.40
2023-04-27T02:46:06.984Z,1.97
2023-04-27T02:48:35.149Z,2.63
2023-04-27T02:51:06.210Z,2.20
2023-04-27T02:53:34.292Z,2.10
2023-04-27T02:56:02.417Z,2.20
2023-04-27T02:58:31.059Z,2.47
2023-04-27T03:00:59.177Z,2.40
2023-04-27T03:03:27.502Z,2.17
2023-04-27T03:05:55.752Z,2.10
2023-04-27T03:08:25.191Z,2.40
2023-04-27T03:10:53.312Z,2.10
2023-04-27T03:16:11.400Z,2.03
2023-04-27T03:18:39.573Z,2.43
2023-04-27T03:21:09.042Z,2.40
2023-04-27T03:23:38.617Z,2.10
2023-04-27T03:26:09.877Z,2.47
2023-04-27T03:28:38.324Z,2.30
2023-04-27T03:31:07.227Z,2.40
2023-04-27T03:33:35.334Z,2.20
2023-04-27T03:36:04.437Z,1.90
2023-04-27T03:38:32.680Z,2.10
2023-04-27T03:41:02.146Z,2.43
2023-04-27T03:43:33.781Z,2.27
2023-04-27T03:46:01.917Z,2.27
2023-04-27T03:48:30.093Z,2.10
2023-04-27T03:50:58.146Z,2.50
2023-04-27T03:53:26.307Z,2.40
2023-04-27T03:55:54.399Z,2.37
2023-04-27T03:58:23.950Z,2.60
2023-04-27T04:00:52.380Z,2.50
2023-04-27T04:03:23.775Z,2.27
2023-04-27T04:05:51.997Z,2.87
2023-04-27T04:08:20.059Z,2.37
2023-04-27T04:10:48.143Z,2.30
2023-04-27T04:13:16.543Z,2.33
2023-04-27T04:15:46.050Z,2.70
2023-04-27T04:18:14.155Z,2.13
2023-04-27T04:20:42.239Z,2.57
2023-04-27T04:23:10.479Z,2.30
2023-04-27T04:25:40.357Z,2.77
2023-04-27T04:28:08.452Z,2.50
2023-04-27T04:30:36.547Z,2.90
2023-04-27T04:33:06.059Z,2.60
2023-04-27T04:35:39.720Z,2.47
2023-04-27T04:38:08.605Z,3.00
2023-04-27T04:40:37.236Z,3.03
2023-04-27T04:43:05.330Z,2.33
2023-04-27T04:45:33.431Z,2.90
2023-04-27T04:48:02.213Z,2.70
2023-04-27T04:50:31.712Z,2.73
2023-04-27T04:53:00.274Z,2.80
2023-04-27T04:55:28.904Z,4.50
2023-04-27T04:57:56.943Z,2.90
2023-04-27T05:00:25.011Z,2.73
2023-04-27T05:02:53.614Z,3.03
2023-04-27T05:05:21.776Z,2.97
2023-04-27T05:07:51.244Z,3.07
2023-04-27T05:10:19.365Z,3.20
2023-04-27T05:12:47.442Z,2.70
2023-04-27T05:15:16.087Z,3.00
2023-04-27T05:17:44.281Z,2.60
2023-04-27T05:20:12.872Z,3.50
2023-04-27T05:22:41.107Z,3.00
2023-04-27T05:25:11.258Z,3.43
2023-04-27T05:27:39.347Z,2.90
2023-04-27T05:30:08.718Z,2.73
2023-04-27T05:32:37.846Z,2.90
2023-04-27T05:35:06.492Z,2.60
2023-04-27T05:37:34.681Z,2.33
2023-04-27T05:40:04.201Z,2.70
2023-04-27T05:42:34.187Z,3.27
2023-04-27T05:45:02.337Z,3.33
2023-04-27T05:47:30.552Z,3.23
2023-04-27T05:49:58.729Z,2.60
2023-04-27T05:52:30.956Z,2.60
2023-04-27T05:55:04.134Z,3.03
2023-04-27T05:57:33.784Z,2.93
2023-04-27T06:00:01.932Z,3.20
2023-04-27T06:02:30.208Z,3.10
2023-04-27T06:04:58.520Z,2.70
2023-04-27T06:07:26.918Z,3.40
2023-04-27T06:09:55.028Z,2.60
2023-04-27T06:12:23.199Z,3.07
2023-04-27T06:14:52.718Z,2.60
2023-04-27T06:17:22.174Z,3.30
2023-04-27T06:19:50.454Z,2.87
2023-04-27T06:22:18.500Z,3.20
2023-04-27T06:24:46.842Z,2.60
2023-04-27T06:27:14.911Z,3.33
2023-04-27T06:29:42.958Z,2.80
2023-04-27T06:32:12.382Z,2.77
2023-04-27T06:34:40.478Z,3.00
2023-04-27T06:37:08.883Z,2.87
2023-04-27T06:39:37.031Z,2.70
2023-04-27T06:42:05.323Z,2.50
2023-04-27T06:44:33.397Z,3.00
2023-04-27T06:49:58.647Z,3.00
2023-04-27T06:52:26.790Z,2.63
2023-04-27T06:54:55.117Z,3.10
2023-04-27T06:57:23.209Z,2.40
2023-04-27T06:59:51.783Z,2.67
2023-04-27T07:02:19.974Z,2.63
2023-04-27T07:04:51.452Z,2.43
2023-04-27T07:07:21.102Z,2.80
2023-04-27T07:09:49.198Z,2.60
2023-04-27T07:12:17.310Z,2.53
2023-04-27T07:14:45.684Z,2.27
2023-04-27T07:17:13.784Z,2.30
2023-04-27T07:19:41.837Z,3.13
2023-04-27T07:22:13.170Z,2.70
2023-04-27T07:24:45.469Z,2.40
2023-04-27T07:27:13.534Z,2.70
2023-04-27T07:29:42.406Z,2.50
2023-04-27T07:32:10.672Z,2.07
2023-04-27T07:34:51.928Z,2.20
2023-04-27T07:37:21.284Z,1.90
2023-04-27T07:39:53.887Z,2.50
2023-04-27T07:42:23.681Z,2.33
2023-04-27T07:44:52.173Z,1.80
2023-04-27T07:47:20.393Z,2.33
2023-04-27T07:49:48.566Z,2.20
2023-04-27T07:52:16.895Z,2.37
2023-04-27T07:54:45.531Z,2.10
2023-04-27T07:57:15.035Z,1.90
2023-04-27T07:59:43.133Z,2.13
2023-04-27T08:02:19.845Z,1.80
2023-04-27T08:04:49.544Z,1.80
2023-04-27T08:07:18.124Z,2.13
2023-04-27T08:09:46.487Z,1.97
2023-04-27T08:12:16.010Z,2.03
2023-04-27T08:14:44.098Z,2.53
2023-04-27T08:17:17.563Z,2.10
2023-04-27T08:19:45.779Z,2.00
2023-04-27T08:22:13.889Z,2.20
2023-04-27T08:24:42.159Z,2.23
2023-04-27T08:27:12.768Z,2.50
2023-04-27T08:29:46.975Z,1.90
2023-04-27T08:32:15.196Z,1.83
2023-04-27T08:34:44.877Z,2.37
2023-04-27T08:37:12.990Z,2.17
2023-04-27T08:39:41.469Z,1.80
2023-04-27T08:42:12.856Z,2.00
2023-04-27T08:44:42.464Z,1.90
2023-04-27T08:47:10.794Z,1.77
2023-04-27T08:49:41.422Z,2.10
2023-04-27T08:52:12.666Z,1.93
2023-04-27T08:54:40.797Z,1.90
2023-04-27T08:57:12.853Z,1.93
2023-04-27T08:59:42.617Z,2.20
2023-04-27T09:02:19.731Z,1.83
2023-04-27T09:04:47.978Z,1.57
2023-04-27T09:07:16.752Z,1.87
2023-04-27T09:09:44.972Z,2.23
2023-04-27T09:12:17.501Z,1.60
2023-04-27T09:14:58.643Z,1.80
2023-04-27T09:17:28.037Z,1.77
2023-04-27T09:20:08.754Z,1.77
2023-04-27T09:22:44.571Z,2.20
2023-04-27T09:25:12.907Z,2.00
2023-04-27T09:27:41.061Z,1.90
2023-04-27T09:30:21.745Z,1.73
2023-04-27T09:32:53.823Z,1.70
2023-04-27T09:35:25.621Z,1.97
2023-04-27T09:37:54.122Z,1.43
2023-04-27T09:40:24.741Z,1.90
2023-04-27T09:42:52.844Z,1.63
2023-04-27T09:45:22.297Z,1.67
2023-04-27T09:47:50.640Z,1.70
2023-04-27T09:50:18.767Z,1.73
2023-04-27T09:52:47.132Z,1.63
2023-04-27T09:55:17.556Z,1.60
2023-04-27T09:57:55.408Z,1.40
2023-04-27T10:00:32.275Z,1.70
2023-04-27T10:03:09.292Z,1.40
2023-04-27T10:05:45.013Z,1.40
2023-04-27T10:08:13.067Z,1.63
2023-04-27T10:10:44.809Z,1.70
2023-04-27T10:13:21.957Z,1.60
2023-04-27T10:15:52.445Z,1.67
2023-04-27T10:18:31.111Z,1.30
2023-04-27T10:21:10.675Z,1.70
2023-04-27T10:23:47.200Z,1.33
2023-04-27T10:26:15.349Z,1.20
2023-04-27T10:28:45.563Z,1.60
2023-04-27T10:31:16.088Z,1.50
2023-04-27T10:33:44.539Z,1.40
2023-04-27T10:36:15.874Z,1.60
2023-04-27T10:38:44.041Z,1.47
2023-04-27T10:41:15.192Z,1.40
2023-04-27T10:43:59.625Z,2.00
2023-04-27T10:46:29.152Z,1.57
2023-04-27T10:48:57.303Z,2.00
2023-04-27T10:51:26.989Z,1.63
2023-04-27T10:53:55.380Z,1.33
2023-04-27T10:56:24.244Z,1.60
2023-04-27T10:58:52.460Z,1.80
2023-04-27T11:01:29.579Z,1.37
2023-04-27T11:03:59.277Z,1.20
2023-04-27T11:06:28.237Z,1.70
2023-04-27T11:08:56.668Z,1.77
2023-04-27T11:11:25.280Z,1.37
2023-04-27T11:13:53.968Z,1.47
2023-04-27T11:16:22.234Z,1.80
2023-04-27T11:18:57.941Z,1.37
2023-04-27T11:21:29.093Z,1.50
2023-04-27T11:23:58.097Z,1.50
2023-04-27T11:26:27.000Z,1.73
2023-04-27T11:28:59.808Z,1.60
2023-04-27T11:31:28.008Z,1.53
2023-04-27T11:33:56.325Z,1.40
2023-04-27T11:36:26.568Z,1.50
2023-04-27T11:39:00.454Z,1.50
2023-04-27T11:41:34.961Z,1.60
2023-04-27T11:44:07.557Z,1.30
2023-04-27T11:46:37.943Z,1.50
2023-04-27T11:49:06.910Z,1.30
2023-04-27T11:51:35.249Z,1.30
2023-04-27T11:54:05.001Z,1.60
2023-04-27T11:56:37.479Z,1.50
2023-04-27T11:59:05.742Z,1.90
2023-04-27T12:01:37.961Z,1.30
2023-04-27T12:04:06.520Z,1.53
2023-04-27T12:06:34.803Z,1.00
2023-04-27T12:09:05.343Z,1.20
2023-04-27T12:11:33.452Z,1.60
2023-04-27T12:14:02.221Z,1.30
2023-04-27T12:16:30.451Z,1.70
2023-04-27T12:18:58.697Z,1.30
2023-04-27T12:21:26.749Z,1.80
2023-04-27T12:23:54.851Z,1.40
2023-04-27T12:26:24.319Z,1.53
2023-04-27T12:28:52.436Z,1.63
2023-04-27T12:31:27.555Z,1.40
2023-04-27T12:33:56.240Z,1.50
2023-04-27T12:36:24.373Z,1.70
2023-04-27T12:38:52.470Z,1.50
2023-04-27T12:41:20.536Z,1.33
2023-04-27T12:43:50.062Z,1.33
2023-04-27T12:46:19.126Z,1.30
2023-04-27T12:48:47.704Z,1.40
2023-04-27T12:51:16.686Z,1.23
2023-04-27T12:53:44.829Z,1.40
2023-04-27T12:56:12.901Z,1.70
2023-04-27T12:58:41.688Z,1.67
2023-04-27T13:01:15.087Z,1.30
2023-04-27T13:03:52.390Z,1.50
2023-04-27T13:06:20.663Z,1.70
2023-04-27T13:08:48.784Z,1.40
2023-04-27T13:11:17.393Z,1.80
2023-04-27T13:13:45.550Z,1.80
2023-04-27T13:16:16.010Z,1.30
2023-04-27T13:18:47.560Z,1.33
2023-04-27T13:21:16.639Z,1.63
2023-04-27T13:23:44.776Z,1.80
2023-04-27T13:26:12.937Z,1.50
2023-04-27T13:28:41.682Z,1.30
2023-04-27T13:31:09.829Z,1.40
2023-04-27T13:33:40.629Z,1.73
2023-04-27T13:36:09.355Z,1.37
2023-04-27T13:38:37.488Z,1.60
2023-04-27T13:41:05.658Z,1.33
2023-04-27T13:43:33.741Z,1.10
2023-04-27T13:46:01.876Z,1.57
2023-04-27T13:48:30.382Z,1.60
2023-04-27T13:50:59.879Z,1.40
2023-04-27T13:53:28.680Z,1.50
2023-04-27T13:55:57.136Z,1.60
2023-04-27T13:58:26.330Z,1.83
2023-04-27T14:00:54.688Z,1.50
2023-04-27T14:03:23.069Z,1.73
2023-04-27T14:05:51.645Z,1.40
2023-04-27T14:08:21.160Z,1.13
2023-04-27T14:10:52.623Z,1.70
2023-04-27T14:13:20.795Z,1.57
2023-04-27T14:15:49.021Z,1.20
2023-04-27T14:18:17.259Z,1.37
2023-04-27T14:20:46.062Z,1.50
2023-04-27T14:23:14.149Z,1.57
2023-04-27T14:25:43.897Z,1.37
2023-04-27T14:28:19.668Z,1.50
2023-04-27T14:30:47.766Z,1.30
2023-04-27T14:33:16.008Z,1.47
2023-04-27T14:35:44.158Z,1.43
2023-04-27T14:38:12.362Z,1.30
2023-04-27T14:40:41.173Z,1.47
2023-04-27T14:43:10.670Z,1.63
2023-04-27T14:45:50.371Z,1.43
2023-04-27T14:48:20.611Z,1.47
2023-04-27T14:50:48.697Z,1.90
2023-04-27T14:53:16.884Z,1.33
2023-04-27T14:55:45.960Z,1.40
2023-04-27T14:58:15.515Z,1.80
2023-04-27T15:00:46.487Z,1.50
2023-04-27T15:03:23.538Z,1.50
2023-04-27T15:05:51.784Z,1.73
2023-04-27T15:08:19.862Z,1.30
2023-04-27T15:10:47.920Z,1.93
2023-04-27T15:13:17.329Z,1.07
2023-04-27T15:15:46.056Z,1.47
2023-04-27T15:18:14.269Z,1.27
2023-04-27T15:20:43.638Z,1.53
2023-04-27T15:23:12.788Z,1.70
2023-04-27T15:25:40.937Z,1.67
2023-04-27T15:28:11.964Z,1.53
2023-04-27T15:30:41.828Z,1.50
2023-04-27T15:33:10.443Z,1.50
2023-04-27T15:35:44.888Z,1.43
2023-04-27T15:38:14.281Z,1.87
2023-04-27T15:40:42.373Z,1.30
2023-04-27T15:43:10.466Z,1.33
2023-04-27T15:45:38.599Z,1.70
2023-04-27T15:48:08.223Z,1.50
2023-04-27T15:50:36.404Z,1.77
2023-04-27T15:53:04.518Z,1.43
2023-04-27T15:55:32.614Z,1.20
2023-04-27T15:58:00.713Z,1.60
2023-04-27T16:00:28.952Z,1.33
2023-04-27T16:02:57.178Z,1.40
2023-04-27T16:05:26.973Z,1.50
2023-04-27T16:07:55.076Z,1.50
2023-04-27T16:10:23.167Z,1.67
2023-04-27T16:12:51.435Z,1.40
2023-04-27T16:15:19.646Z,1.40
2023-04-27T16:17:47.790Z,1.23
2023-04-27T16:20:16.310Z,1.40
2023-04-27T16:22:45.799Z,1.57
2023-04-27T16:25:21.504Z,1.37
2023-04-27T16:27:49.752Z,1.40
2023-04-27T16:30:17.852Z,1.67
2023-04-27T16:32:46.021Z,1.83
2023-04-27T16:35:14.080Z,1.47
2023-04-27T16:37:42.262Z,1.40
2023-04-27T16:40:12.945Z,1.33
2023-04-27T16:42:41.016Z,1.83
2023-04-27T16:45:10.831Z,1.73
2023-04-27T16:47:39.434Z,1.43
2023-04-27T16:50:08.143Z,1.47
2023-04-27T16:52:36.246Z,1.40
2023-04-27T16:55:04.511Z,1.30
2023-04-27T16:57:34.037Z,1.43
2023-04-27T17:00:02.150Z,1.60
2023-04-27T17:02:30.310Z,1.80
2023-04-27T17:04:59.545Z,1.63
2023-04-27T17:07:32.652Z,1.80
2023-04-27T17:10:00.969Z,1.53
2023-04-27T17:12:29.015Z,1.60
2023-04-27T17:15:05.914Z,1.47
2023-04-27T17:17:34.414Z,1.77
2023-04-27T17:20:02.545Z,1.60
2023-04-27T17:22:30.613Z,1.40
2023-04-27T17:24:58.699Z,1.77
2023-04-27T17:27:26.826Z,2.00
2023-04-27T17:29:56.150Z,1.60
2023-04-27T17:32:27.413Z,1.43
2023-04-27T17:34:55.787Z,1.97
2023-04-27T17:37:23.871Z,1.70
2023-04-27T17:39:53.117Z,1.80
2023-04-27T17:42:21.302Z,1.73
2023-04-27T17:44:49.369Z,1.27
2023-04-27T17:47:18.971Z,1.90
2023-04-27T17:49:55.794Z,1.70
2023-04-27T17:52:23.893Z,1.63
2023-04-27T17:54:52.021Z,2.10
2023-04-27T17:57:21.549Z,1.83
2023-04-27T17:59:50.071Z,1.90
2023-04-27T18:02:18.199Z,1.80
2023-04-27T18:04:46.452Z,1.90
2023-04-27T18:07:27.306Z,2.07
2023-04-27T18:09:56.574Z,2.10
2023-04-27T18:12:24.663Z,2.03
2023-04-27T18:14:52.771Z,2.10
2023-04-27T18:17:21.097Z,2.17
2023-04-27T18:19:57.961Z,2.03
2023-04-27T18:22:35.874Z,2.20
2023-04-27T18:25:04.010Z,2.10
2023-04-27T18:27:32.967Z,1.90
2023-04-27T18:30:01.159Z,2.13
2023-04-27T18:32:29.470Z,1.87
2023-04-27T18:34:57.615Z,2.00
2023-04-27T18:37:25.757Z,2.20
2023-04-27T18:39:55.684Z,1.93
2023-04-27T18:42:24.277Z,2.00
2023-04-27T18:44:54.723Z,2.03
2023-04-27T18:47:22.901Z,1.77
2023-04-27T18:49:51.183Z,2.20
2023-04-27T18:52:19.219Z,1.80
2023-04-27T18:54:47.264Z,1.73
2023-04-27T18:57:16.824Z,2.07
2023-04-27T18:59:44.939Z,2.10
2023-04-27T19:02:13.047Z,1.83
2023-04-27T19:04:45.445Z,2.30
2023-04-27T19:07:28.527Z,2.20
2023-04-27T19:09:56.688Z,2.50
2023-04-27T19:12:26.213Z,2.60
2023-04-27T19:14:54.273Z,2.00
2023-04-27T19:17:22.686Z,2.17
2023-04-27T19:19:51.170Z,1.80
2023-04-27T19:22:19.306Z,2.00
2023-04-27T19:24:47.411Z,2.37
2023-04-27T19:27:15.568Z,1.80
2023-04-27T19:29:52.071Z,2.00
2023-04-27T19:32:20.665Z,2.13
2023-04-27T19:34:49.550Z,2.43
2023-04-27T19:37:17.733Z,1.97
2023-04-27T19:39:48.743Z,2.00
2023-04-27T19:42:16.841Z,2.50
2023-04-27T19:44:44.956Z,1.80
2023-04-27T19:47:14.469Z,1.80
2023-04-27T19:49:42.551Z,2.03
2023-04-27T19:52:10.760Z,2.30
2023-04-27T19:54:39.051Z,2.20
2023-04-27T19:57:16.541Z,2.13
2023-04-27T19:59:44.615Z,1.73
2023-04-27T20:02:14.070Z,2.17
2023-04-27T20:04:43.218Z,2.30
2023-04-27T20:07:12.125Z,2.00
2023-04-27T20:09:40.260Z,2.40
2023-04-27T20:12:15.710Z,2.20
2023-04-27T20:14:52.085Z,2.20
2023-04-27T20:17:21.574Z,2.10
2023-04-27T20:19:49.858Z,2.20
2023-04-27T20:22:17.911Z,2.13
2023-04-27T20:24:46.010Z,2.30
2023-04-27T20:27:14.238Z,2.20
2023-04-27T20:29:46.816Z,2.30
2023-04-27T20:32:22.428Z,2.27
2023-04-27T20:34:50.510Z,2.20
2023-04-27T20:37:18.848Z,2.33
2023-04-27T20:39:46.971Z,2.10
2023-04-27T20:42:15.063Z,2.60
2023-04-27T20:44:46.058Z,2.67
2023-04-27T20:47:17.186Z,2.50
2023-04-27T20:49:46.649Z,2.37
2023-04-27T20:52:14.813Z,2.53
2023-04-27T20:54:42.943Z,2.53
2023-04-27T20:57:14.076Z,2.43
2023-04-27T20:59:42.300Z,2.27
2023-04-27T21:02:10.347Z,2.43
2023-04-27T21:04:39.520Z,2.10
2023-04-27T21:07:09.081Z,2.40
2023-04-27T21:09:38.726Z,2.30
2023-04-27T21:12:07.084Z,2.40
2023-04-27T21:14:35.204Z,2.57
2023-04-27T21:17:03.611Z,3.20
2023-04-27T21:19:31.999Z,2.30
2023-04-27T21:22:00.499Z,2.83
2023-04-27T21:24:29.971Z,2.77
2023-04-27T21:26:58.090Z,2.60
2023-04-27T21:29:26.180Z,2.70
2023-04-27T21:31:54.303Z,2.80
2023-04-27T21:34:22.365Z,2.87
2023-04-27T21:36:50.478Z,2.80
2023-04-27T21:39:28.663Z,2.57
2023-04-27T21:42:00.130Z,2.60
2023-04-27T21:44:28.222Z,2.50
2023-04-27T21:46:56.313Z,2.27
2023-04-27T21:49:24.403Z,2.67
2023-04-27T21:51:52.529Z,2.60
2023-04-27T21:54:20.656Z,2.87
2023-04-27T21:56:56.284Z,2.70
2023-04-27T21:59:25.744Z,2.43
2023-04-27T22:01:54.012Z,2.47
2023-04-27T22:04:22.696Z,2.30
2023-04-27T22:06:51.419Z,3.00
2023-04-27T22:09:19.595Z,2.47
2023-04-27T22:11:47.739Z,2.30
2023-04-27T22:14:17.143Z,2.37
2023-04-27T22:16:47.395Z,2.90
2023-04-27T22:19:15.508Z,2.67
2023-04-27T22:21:43.556Z,2.60
2023-04-27T22:24:11.606Z,2.60
2023-04-27T22:26:39.688Z,2.27
2023-04-27T22:29:07.760Z,2.50
2023-04-27T22:31:38.682Z,2.90
2023-04-27T22:34:08.150Z,3.07
2023-04-27T22:36:36.238Z,2.70
2023-04-27T22:39:04.360Z,3.20
2023-04-27T22:41:32.439Z,2.53
2023-04-27T22:44:04.949Z,2.67
2023-04-27T22:46:32.996Z,3.20
2023-04-27T22:49:01.708Z,3.10
2023-04-27T22:51:31.158Z,2.70
2023-04-27T22:53:59.236Z,2.90
2023-04-27T22:56:27.328Z,3.10
2023-04-27T22:58:55.798Z,3.33
2023-04-27T23:01:23.873Z,3.10
2023-04-27T23:03:55.606Z,2.80
2023-04-27T23:06:23.788Z,3.13
2023-04-27T23:08:53.251Z,2.90
2023-04-27T23:11:21.230Z,3.33
2023-04-27T23:13:50.754Z,2.90
2023-04-27T23:16:18.883Z,3.00
2023-04-27T23:18:46.918Z,3.10
2023-04-27T23:21:23.859Z,3.67
2023-04-27T23:23:53.309Z,2.93
2023-04-27T23:26:21.598Z,2.80
2023-04-27T23:28:49.775Z,3.13
2023-04-27T23:31:17.899Z,3.20
2023-04-27T23:33:45.973Z,3.33
2023-04-27T23:36:14.093Z,3.20
2023-04-27T23:38:42.166Z,3.10
2023-04-27T23:41:12.082Z,3.60
2023-04-27T23:43:40.744Z,3.50
2023-04-27T23:46:09.733Z,3.33
2023-04-27T23:48:37.879Z,3.10
2023-04-27T23:51:06.182Z,3.30
2023-04-27T23:53:40.193Z,3.27
2023-04-27T23:56:16.919Z,3.60
2023-04-27T23:58:46.388Z,2.97
